createdAt,value
2023-02-14T00:01:51.972Z,3.70
2023-02-14T00:04:20.189Z,3.90
2023-02-14T00:06:48.483Z,3.70
2023-02-14T00:09:17.799Z,3.70
2023-02-14T00:11:48.838Z,3.60
2023-02-14T00:14:36.371Z,3.30
2023-02-14T00:17:04.637Z,3.50
2023-02-14T00:19:36.051Z,3.60
2023-02-14T00:22:04.753Z,3.30
2023-02-14T00:24:33.399Z,3.00
2023-02-14T00:27:01.863Z,3.60
2023-02-14T00:29:31.427Z,3.60
2023-02-14T00:32:00.082Z,3.40
2023-02-14T00:34:29.753Z,3.30
2023-02-14T00:37:00.563Z,3.10
2023-02-14T00:39:28.615Z,3.40
2023-02-14T00:41:56.685Z,3.30
2023-02-14T00:44:25.277Z,3.30
2023-02-14T00:46:53.315Z,3.60
2023-02-14T00:49:21.688Z,3.20
2023-02-14T00:51:49.669Z,3.30
2023-02-14T00:54:19.690Z,3.20
2023-02-14T00:56:47.666Z,3.40
2023-02-14T00:59:18.758Z,3.30
2023-02-14T01:01:46.787Z,3.50
2023-02-14T01:04:14.772Z,3.20
2023-02-14T01:06:43.236Z,3.30
2023-02-14T01:09:11.245Z,3.10
2023-02-14T01:11:42.074Z,3.20
2023-02-14T01:14:10.069Z,3.30
2023-02-14T01:16:38.501Z,3.00
2023-02-14T01:19:06.521Z,3.10
2023-02-14T01:21:37.472Z,2.90
2023-02-14T01:24:07.014Z,3.30
2023-02-14T01:26:36.669Z,3.20
2023-02-14T01:29:05.107Z,2.90
2023-02-14T01:31:34.663Z,3.10
2023-02-14T01:34:04.066Z,3.20
2023-02-14T01:36:34.099Z,3.00
2023-02-14T01:39:08.931Z,3.10
2023-02-14T01:41:37.529Z,3.10
2023-02-14T01:44:07.707Z,3.50
2023-02-14T01:46:37.002Z,3.20
2023-02-14T01:49:20.569Z,3.20
2023-02-14T01:51:52.725Z,3.00
2023-02-14T01:54:21.385Z,3.20
2023-02-14T01:56:51.331Z,3.40
2023-02-14T01:59:21.188Z,3.20
2023-02-14T02:01:50.069Z,3.40
2023-02-14T02:04:22.162Z,3.30
2023-02-14T02:06:59.812Z,3.40
2023-02-14T02:09:51.648Z,3.20
2023-02-14T02:12:19.741Z,3.50
2023-02-14T02:14:54.349Z,3.20
2023-02-14T02:17:37.570Z,3.20
2023-02-14T02:20:26.795Z,3.40
2023-02-14T02:23:01.714Z,3.10
2023-02-14T02:25:49.712Z,3.30
2023-02-14T02:28:45.739Z,3.40
2023-02-14T02:31:29.170Z,3.70
2023-02-14T02:34:25.274Z,3.70
2023-02-14T02:37:18.129Z,3.50
2023-02-14T02:39:49.263Z,3.50
2023-02-14T02:42:21.552Z,3.60
2023-02-14T02:45:11.972Z,3.60
2023-02-14T02:47:48.300Z,3.30
2023-02-14T02:51:01.203Z,3.60
2023-02-14T02:53:45.348Z,3.60
2023-02-14T02:56:36.165Z,3.40
2023-02-14T02:59:06.695Z,3.40
2023-02-14T03:01:36.740Z,3.50
2023-02-14T03:04:28.730Z,3.30
2023-02-14T03:06:57.309Z,3.50
2023-02-14T03:09:27.071Z,3.40
2023-02-14T03:12:33.531Z,3.20
2023-02-14T03:15:20.363Z,3.10
2023-02-14T03:18:13.921Z,3.00
2023-02-14T03:20:42.043Z,2.90
2023-02-14T03:23:23.782Z,3.00
2023-02-14T03:26:29.334Z,2.80
2023-02-14T03:29:26.950Z,2.60
2023-02-14T03:32:07.775Z,2.80
2023-02-14T03:35:07.730Z,2.80
2023-02-14T03:37:52.752Z,2.90
2023-02-14T03:40:32.664Z,3.00
2023-02-14T03:43:04.339Z,2.80
2023-02-14T03:45:34.816Z,2.70
2023-02-14T03:48:06.100Z,2.70
2023-02-14T03:50:34.109Z,3.00
2023-02-14T03:53:02.020Z,2.60
2023-02-14T03:55:34.814Z,2.70
2023-02-14T03:58:13.114Z,2.60
2023-02-14T04:00:41.359Z,2.60
2023-02-14T04:03:12.072Z,2.50
2023-02-14T04:05:42.224Z,2.50
2023-02-14T04:08:10.767Z,2.50
2023-02-14T04:10:40.092Z,2.40
2023-02-14T04:13:08.959Z,2.60
2023-02-14T04:15:36.810Z,2.70
2023-02-14T04:18:23.330Z,2.60
2023-02-14T04:20:51.895Z,2.70
2023-02-14T04:23:22.164Z,2.70
2023-02-14T04:25:50.369Z,2.80
2023-02-14T04:28:20.224Z,2.70
2023-02-14T04:30:48.072Z,2.40
2023-02-14T04:33:16.168Z,2.60
2023-02-14T04:35:44.572Z,2.50
2023-02-14T04:38:12.561Z,2.50
2023-02-14T04:40:40.854Z,2.50
2023-02-14T04:43:08.863Z,2.50
2023-02-14T04:45:38.510Z,2.30
2023-02-14T04:48:06.463Z,2.60
2023-02-14T04:50:35.256Z,2.60
2023-02-14T04:53:03.162Z,2.60
2023-02-14T04:55:32.258Z,2.90
2023-02-14T04:58:00.485Z,2.60
2023-02-14T05:00:28.594Z,2.40
2023-02-14T05:02:56.554Z,2.60
2023-02-14T05:05:24.598Z,2.50
2023-02-14T05:07:54.954Z,2.60
2023-02-14T05:10:23.175Z,2.30
2023-02-14T05:12:51.218Z,2.60
2023-02-14T05:15:19.895Z,2.90
2023-02-14T05:17:48.117Z,2.70
2023-02-14T05:20:16.350Z,2.70
2023-02-14T05:22:45.184Z,2.60
2023-02-14T05:25:12.976Z,2.50
2023-02-14T05:27:44.256Z,2.90
2023-02-14T05:30:13.407Z,2.90
2023-02-14T05:32:41.325Z,2.90
2023-02-14T05:35:09.842Z,2.90
2023-02-14T05:37:39.864Z,2.90
2023-02-14T05:40:09.215Z,2.80
2023-02-14T05:42:37.090Z,2.70
2023-02-14T05:45:07.414Z,2.70
2023-02-14T05:47:36.611Z,6.80
2023-02-14T05:50:06.115Z,4.60
2023-02-14T05:52:34.257Z,3.20
2023-02-14T05:55:02.169Z,4.00
2023-02-14T05:57:30.135Z,3.80
2023-02-14T05:59:58.351Z,3.10
2023-02-14T06:02:32.345Z,3.60
2023-02-14T06:05:01.241Z,3.40
2023-02-14T06:07:29.414Z,2.80
2023-02-14T06:09:57.371Z,2.90
2023-02-14T06:12:25.428Z,3.00
2023-02-14T06:14:53.500Z,3.10
2023-02-14T06:17:21.301Z,2.70
2023-02-14T06:19:49.777Z,2.60
2023-02-14T06:22:18.536Z,2.50
2023-02-14T06:24:49.092Z,2.40
2023-02-14T06:27:17.298Z,2.10
2023-02-14T06:29:45.437Z,2.30
2023-02-14T06:32:13.675Z,2.30
2023-02-14T06:34:41.662Z,2.40
2023-02-14T06:37:09.640Z,2.30
2023-02-14T06:39:37.536Z,2.60
2023-02-14T06:42:05.421Z,2.40
2023-02-14T06:44:33.493Z,2.20
2023-02-14T06:47:02.548Z,2.00
2023-02-14T06:49:31.765Z,1.90
2023-02-14T06:52:00.840Z,2.10
2023-02-14T06:54:29.058Z,1.90
2023-02-14T06:56:58.219Z,2.00
2023-02-14T06:59:26.289Z,2.00
2023-02-14T07:01:55.182Z,1.90
2023-02-14T07:04:23.101Z,2.00
2023-02-14T07:06:51.007Z,2.00
2023-02-14T07:09:18.933Z,2.30
2023-02-14T07:11:47.263Z,1.60
2023-02-14T07:14:22.178Z,1.80
2023-02-14T07:16:50.125Z,1.80
2023-02-14T07:19:18.738Z,1.70
2023-02-14T07:21:48.051Z,2.10
2023-02-14T07:24:16.008Z,1.70
2023-02-14T07:26:43.958Z,1.70
2023-02-14T07:29:12.051Z,2.00
2023-02-14T07:31:40.033Z,1.80
2023-02-14T07:34:08.501Z,1.60
2023-02-14T07:36:37.826Z,1.70
2023-02-14T07:39:05.821Z,1.50
2023-02-14T07:41:33.847Z,1.60
2023-02-14T07:44:03.052Z,1.50
2023-02-14T07:46:31.298Z,1.60
2023-02-14T07:48:59.789Z,1.70
2023-02-14T07:51:27.767Z,1.70
2023-02-14T07:53:57.980Z,1.90
2023-02-14T07:56:25.983Z,1.40
2023-02-14T07:58:53.976Z,1.50
2023-02-14T08:01:21.897Z,1.60
2023-02-14T08:03:50.040Z,1.40
2023-02-14T08:06:19.644Z,1.70
2023-02-14T08:08:47.658Z,1.60
2023-02-14T08:11:39.159Z,1.50
2023-02-14T08:14:10.062Z,1.40
2023-02-14T08:16:39.112Z,1.40
2023-02-14T08:19:06.972Z,1.60
2023-02-14T08:21:35.328Z,1.50
2023-02-14T08:24:03.576Z,1.30
2023-02-14T08:26:32.617Z,1.50
2023-02-14T08:29:01.749Z,1.40
2023-02-14T08:31:36.303Z,1.50
2023-02-14T08:34:05.819Z,1.60
2023-02-14T08:36:35.427Z,1.70
2023-02-14T08:39:03.988Z,1.40
2023-02-14T08:41:33.025Z,1.50
2023-02-14T08:44:01.878Z,1.40
2023-02-14T08:46:30.983Z,1.60
2023-02-14T08:48:59.080Z,1.70
2023-02-14T08:51:27.260Z,1.60
2023-02-14T08:53:55.946Z,1.50
2023-02-14T08:56:24.958Z,1.60
2023-02-14T08:58:54.549Z,1.60
2023-02-14T09:01:22.861Z,1.60
2023-02-14T09:03:53.825Z,1.60
2023-02-14T09:06:23.087Z,1.60
2023-02-14T09:08:51.672Z,1.50
2023-02-14T09:11:22.443Z,1.50
2023-02-14T09:13:53.190Z,2.10
2023-02-14T09:16:21.861Z,1.70
2023-02-14T09:18:50.875Z,1.80
2023-02-14T09:21:23.129Z,1.70
2023-02-14T09:24:10.829Z,1.70
2023-02-14T09:26:40.917Z,1.60
2023-02-14T09:29:11.534Z,1.70
2023-02-14T09:31:39.931Z,1.50
2023-02-14T09:34:07.999Z,1.40
2023-02-14T09:36:35.976Z,1.50
2023-02-14T09:39:03.962Z,1.70
2023-02-14T09:41:59.109Z,1.50
2023-02-14T09:44:42.144Z,1.50
2023-02-14T09:47:39.790Z,1.50
2023-02-14T09:50:14.504Z,1.40
2023-02-14T09:52:45.796Z,1.60
2023-02-14T09:55:15.761Z,1.70
2023-02-14T09:58:02.758Z,1.60
2023-02-14T10:00:49.684Z,1.60
2023-02-14T10:03:33.496Z,1.60
2023-02-14T10:06:18.271Z,1.70
2023-02-14T10:08:48.932Z,1.70
2023-02-14T10:11:20.522Z,1.50
2023-02-14T10:13:52.909Z,1.40
2023-02-14T10:16:27.177Z,1.50
2023-02-14T10:19:08.365Z,1.50
2023-02-14T10:21:47.066Z,1.50
2023-02-14T10:24:19.517Z,1.60
2023-02-14T10:26:48.388Z,1.60
2023-02-14T10:29:18.302Z,1.50
2023-02-14T10:31:59.005Z,1.40
2023-02-14T10:34:35.864Z,1.50
2023-02-14T10:37:12.959Z,1.70
2023-02-14T10:40:01.441Z,1.30
2023-02-14T10:42:44.571Z,1.40
2023-02-14T10:48:38.135Z,1.40
2023-02-14T10:51:28.373Z,1.40
2023-02-14T10:54:19.957Z,1.60
2023-02-14T10:57:20.646Z,1.50
2023-02-14T11:00:00.455Z,1.50
2023-02-14T11:02:34.254Z,1.40
2023-02-14T11:05:03.296Z,1.40
2023-02-14T11:07:31.326Z,1.30
2023-02-14T11:10:00.008Z,1.30
2023-02-14T11:12:39.669Z,1.30
2023-02-14T11:15:09.610Z,1.40
2023-02-14T11:17:38.760Z,1.20
2023-02-14T11:20:20.061Z,1.30
2023-02-14T11:22:49.318Z,1.60
2023-02-14T11:25:22.514Z,1.30
2023-02-14T11:28:12.605Z,1.40
2023-02-14T11:30:42.125Z,1.60
2023-02-14T11:33:42.920Z,1.60
2023-02-14T11:36:13.648Z,1.40
2023-02-14T11:38:42.293Z,1.50
2023-02-14T11:41:13.028Z,1.40
2023-02-14T11:43:42.934Z,1.20
2023-02-14T11:46:20.162Z,1.20
2023-02-14T11:49:03.918Z,1.30
2023-02-14T11:51:41.959Z,1.30
2023-02-14T11:54:13.474Z,1.30
2023-02-14T11:57:10.108Z,2.60
2023-02-14T11:59:47.130Z,1.30
2023-02-14T12:02:32.801Z,1.20
2023-02-14T12:05:20.649Z,1.20
2023-02-14T12:07:50.935Z,1.30
2023-02-14T12:10:22.024Z,1.20
2023-02-14T12:12:56.813Z,1.10
2023-02-14T12:15:36.544Z,1.20
2023-02-14T12:18:30.140Z,1.10
2023-02-14T12:21:03.878Z,1.20
2023-02-14T12:26:47.827Z,1.40
2023-02-14T12:29:51.182Z,1.50
2023-02-14T12:32:23.479Z,1.20
2023-02-14T12:34:52.284Z,1.40
2023-02-14T12:37:40.881Z,1.30
2023-02-14T12:40:09.325Z,1.50
2023-02-14T12:42:41.765Z,1.40
2023-02-14T12:45:10.338Z,1.50
2023-02-14T12:48:16.826Z,1.40
2023-02-14T12:51:07.172Z,1.40
2023-02-14T12:53:47.484Z,1.50
2023-02-14T12:57:04.532Z,2.10
2023-02-14T12:59:45.084Z,1.60
2023-02-14T13:03:01.169Z,1.60
2023-02-14T13:05:31.991Z,1.50
2023-02-14T13:08:16.642Z,1.60
2023-02-14T13:10:50.622Z,1.70
2023-02-14T13:13:41.985Z,1.30
2023-02-14T13:16:27.714Z,1.50
2023-02-14T13:19:03.514Z,1.30
2023-02-14T13:21:34.512Z,1.40
2023-02-14T13:24:16.268Z,3.10
2023-02-14T13:26:46.182Z,1.50
2023-02-14T13:29:17.697Z,1.40
2023-02-14T13:31:46.845Z,1.10
2023-02-14T13:34:28.463Z,2.10
2023-02-14T13:36:57.644Z,1.40
2023-02-14T13:39:38.797Z,1.60
2023-02-14T13:42:07.989Z,1.20
2023-02-14T13:44:49.066Z,1.60
2023-02-14T13:47:24.264Z,1.30
2023-02-14T13:50:01.606Z,1.30
2023-02-14T13:52:46.575Z,1.30
2023-02-14T13:55:18.189Z,1.20
2023-02-14T13:57:46.390Z,1.20
2023-02-14T14:00:17.534Z,1.20
2023-02-14T14:02:52.365Z,1.10
2023-02-14T14:05:29.675Z,1.30
2023-02-14T14:08:23.422Z,1.40
2023-02-14T14:10:59.729Z,1.40
2023-02-14T14:13:41.083Z,1.40
2023-02-14T14:16:26.369Z,1.30
2023-02-14T14:18:57.226Z,1.20
2023-02-14T14:21:29.181Z,1.30
2023-02-14T14:24:26.081Z,1.30
2023-02-14T14:26:56.547Z,1.00
2023-02-14T14:29:30.317Z,1.10
2023-02-14T14:31:58.492Z,1.00
2023-02-14T14:34:28.057Z,1.10
2023-02-14T14:37:15.929Z,1.40
2023-02-14T14:39:52.057Z,1.40
2023-02-14T14:42:20.251Z,1.20
2023-02-14T14:44:57.535Z,1.20
2023-02-14T14:47:27.363Z,1.30
2023-02-14T14:50:03.640Z,1.50
2023-02-14T14:52:35.907Z,1.30
2023-02-14T14:57:37.793Z,1.20
2023-02-14T15:00:28.455Z,1.30
2023-02-14T15:02:56.287Z,0.90
2023-02-14T15:05:32.716Z,1.10
2023-02-14T15:08:27.822Z,1.20
2023-02-14T15:11:11.272Z,1.40
2023-02-14T15:13:57.485Z,2.00
2023-02-14T15:16:38.172Z,1.50
2023-02-14T15:19:21.121Z,1.00
2023-02-14T15:21:49.584Z,1.10
2023-02-14T15:24:18.119Z,1.10
2023-02-14T15:26:47.296Z,1.30
2023-02-14T15:29:24.495Z,1.40
2023-02-14T15:31:52.868Z,1.30
2023-02-14T15:34:23.980Z,1.60
2023-02-14T15:36:54.022Z,2.00
2023-02-14T15:39:22.439Z,1.20
2023-02-14T15:41:53.170Z,1.20
2023-02-14T15:44:22.179Z,1.10
2023-02-14T15:46:57.023Z,1.40
2023-02-14T15:49:31.599Z,1.30
2023-02-14T15:52:01.909Z,1.40
2023-02-14T15:54:41.902Z,1.40
2023-02-14T15:57:20.071Z,1.10
2023-02-14T15:59:48.901Z,1.30
2023-02-14T16:02:28.327Z,1.20
2023-02-14T16:05:03.600Z,1.40
2023-02-14T16:07:31.689Z,1.40
2023-02-14T16:10:24.958Z,1.50
2023-02-14T16:12:57.419Z,1.40
2023-02-14T16:15:27.889Z,1.60
2023-02-14T16:17:56.145Z,1.30
2023-02-14T16:20:45.284Z,1.30
2023-02-14T16:23:23.762Z,1.40
2023-02-14T16:25:52.291Z,1.40
2023-02-14T16:28:21.485Z,1.30
2023-02-14T16:30:56.376Z,1.30
2023-02-14T16:33:26.989Z,1.30
2023-02-14T16:35:55.045Z,1.40
2023-02-14T16:38:23.189Z,1.30
2023-02-14T16:40:52.573Z,1.40
2023-02-14T16:43:21.916Z,1.60
2023-02-14T16:45:52.703Z,1.60
2023-02-14T16:48:20.686Z,1.60
2023-02-14T16:50:48.672Z,1.90
2023-02-14T16:53:25.505Z,1.70
2023-02-14T16:55:54.430Z,1.50
2023-02-14T16:58:23.467Z,1.90
2023-02-14T17:00:51.830Z,2.10
2023-02-14T17:03:20.924Z,2.80
2023-02-14T17:05:49.184Z,2.50
2023-02-14T17:08:17.193Z,2.10
2023-02-14T17:10:48.084Z,1.70
2023-02-14T17:13:18.572Z,1.70
2023-02-14T17:15:47.372Z,1.80
2023-02-14T17:18:15.662Z,1.70
2023-02-14T17:20:45.474Z,1.90
2023-02-14T17:23:15.421Z,2.10
2023-02-14T17:25:47.620Z,2.20
2023-02-14T17:28:16.168Z,2.60
2023-02-14T17:30:44.294Z,2.30
2023-02-14T17:33:12.193Z,2.50
2023-02-14T17:35:40.145Z,2.00
2023-02-14T17:38:11.531Z,2.00
2023-02-14T17:40:39.411Z,1.90
2023-02-14T17:43:07.580Z,1.50
2023-02-14T17:45:35.532Z,1.90
2023-02-14T17:48:03.918Z,1.60
2023-02-14T17:50:31.817Z,1.60
2023-02-14T17:53:00.728Z,1.80
2023-02-14T17:55:28.688Z,1.80
2023-02-14T17:57:56.508Z,1.90
2023-02-14T18:00:24.778Z,2.00
2023-02-14T18:02:54.833Z,2.00
2023-02-14T18:05:22.962Z,2.10
2023-02-14T18:07:53.889Z,2.10
2023-02-14T18:10:22.075Z,2.30
2023-02-14T18:12:50.017Z,2.40
2023-02-14T18:15:18.214Z,1.90
2023-02-14T18:17:49.769Z,2.30
2023-02-14T18:20:17.835Z,2.00
2023-02-14T18:22:45.913Z,2.00
2023-02-14T18:25:14.192Z,2.10
2023-02-14T18:27:42.424Z,2.00
2023-02-14T18:30:11.170Z,1.90
2023-02-14T18:32:40.959Z,2.30
2023-02-14T18:35:08.937Z,2.30
2023-02-14T18:37:40.029Z,2.30
2023-02-14T18:40:11.272Z,2.40
2023-02-14T18:42:39.212Z,2.70
2023-02-14T18:45:08.850Z,2.60
2023-02-14T18:47:37.266Z,3.00
2023-02-14T18:50:09.912Z,2.70
2023-02-14T18:52:37.989Z,2.70
2023-02-14T18:55:06.505Z,2.50
2023-02-14T18:57:34.804Z,2.60
2023-02-14T19:00:06.883Z,2.40
2023-02-14T19:02:35.264Z,2.50
2023-02-14T19:05:04.731Z,2.40
2023-02-14T19:07:33.818Z,2.30
2023-02-14T19:10:02.932Z,2.00
2023-02-14T19:12:34.784Z,2.10
2023-02-14T19:15:03.584Z,2.20
2023-02-14T19:17:34.422Z,2.20
2023-02-14T19:20:08.522Z,2.50
2023-02-14T19:25:09.074Z,2.20
2023-02-14T19:27:37.413Z,2.00
2023-02-14T19:30:06.627Z,2.00
2023-02-14T19:32:35.208Z,2.10
2023-02-14T19:35:03.371Z,2.00
2023-02-14T19:37:31.538Z,2.30
2023-02-14T19:40:00.013Z,2.00
2023-02-14T19:42:27.879Z,1.90
2023-02-14T19:44:55.782Z,2.20
2023-02-14T19:47:39.581Z,1.80
2023-02-14T19:50:12.761Z,1.70
2023-02-14T19:52:41.069Z,1.80
2023-02-14T19:55:23.756Z,1.90
2023-02-14T19:57:51.977Z,1.90
2023-02-14T20:00:22.576Z,2.00
2023-02-14T20:02:51.295Z,1.80
2023-02-14T20:05:19.673Z,2.00
2023-02-14T20:07:54.360Z,2.00
2023-02-14T20:10:23.766Z,2.10
2023-02-14T20:12:52.028Z,1.90
2023-02-14T20:15:20.117Z,2.00
2023-02-14T20:17:48.734Z,1.90
2023-02-14T20:20:16.833Z,1.90
2023-02-14T20:22:48.026Z,1.90
2023-02-14T20:25:16.326Z,2.20
2023-02-14T20:27:48.684Z,1.90
2023-02-14T20:30:20.745Z,1.60
2023-02-14T20:32:51.618Z,1.80
2023-02-14T20:35:19.559Z,1.70
2023-02-14T20:37:52.532Z,1.70
2023-02-14T20:40:20.841Z,1.50
2023-02-14T20:42:49.547Z,1.50
2023-02-14T20:45:17.893Z,1.70
2023-02-14T20:47:48.977Z,1.50
2023-02-14T20:50:17.020Z,1.50
2023-02-14T20:52:45.020Z,1.40
2023-02-14T20:55:12.845Z,1.50
2023-02-14T20:57:40.801Z,1.40
2023-02-14T21:00:10.594Z,1.50
2023-02-14T21:02:38.565Z,1.50
2023-02-14T21:05:08.186Z,1.50
2023-02-14T21:07:36.340Z,1.50
2023-02-14T21:10:05.050Z,1.50
2023-02-14T21:12:36.083Z,1.70
2023-02-14T21:15:10.428Z,1.90
2023-02-14T21:17:39.585Z,2.10
2023-02-14T21:20:10.684Z,1.90
2023-02-14T21:22:40.915Z,1.80
2023-02-14T21:25:08.839Z,2.00
2023-02-14T21:27:37.014Z,1.80
2023-02-14T21:30:06.236Z,1.90
2023-02-14T21:32:36.161Z,1.90
2023-02-14T21:35:05.434Z,2.10
2023-02-14T21:37:34.320Z,2.20
2023-02-14T21:40:03.376Z,2.40
2023-02-14T21:42:31.582Z,2.90
2023-02-14T21:45:18.044Z,3.00
2023-02-14T21:48:06.233Z,2.70
2023-02-14T21:50:36.865Z,3.40
2023-02-14T21:53:07.507Z,3.40
2023-02-14T21:55:35.890Z,3.40
2023-02-14T21:58:04.474Z,3.30
2023-02-14T22:00:32.684Z,2.80
2023-02-14T22:03:00.832Z,2.70
2023-02-14T22:05:28.951Z,2.10
2023-02-14T22:07:56.847Z,2.30
2023-02-14T22:10:24.678Z,1.90
2023-02-14T22:12:52.554Z,2.00
2023-02-14T22:15:22.151Z,1.90
2023-02-14T22:17:52.916Z,2.10
2023-02-14T22:20:21.235Z,1.80
2023-02-14T22:22:49.466Z,1.90
2023-02-14T22:25:17.648Z,1.90
2023-02-14T22:27:49.388Z,1.80
2023-02-14T22:30:23.726Z,1.70
2023-02-14T22:32:52.852Z,1.80
2023-02-14T22:35:21.944Z,1.70
2023-02-14T22:37:51.259Z,2.20
2023-02-14T22:40:19.251Z,3.00
2023-02-14T22:42:48.740Z,3.30
2023-02-14T22:45:16.755Z,3.50
2023-02-14T22:47:44.683Z,2.90
2023-02-14T22:50:12.547Z,3.40
2023-02-14T22:52:40.545Z,2.80
2023-02-14T22:55:15.073Z,3.60
2023-02-14T22:57:43.165Z,3.40
2023-02-14T23:00:12.025Z,3.70
2023-02-14T23:02:41.085Z,3.60
2023-02-14T23:06:47.782Z,5.10
2023-02-14T23:09:16.499Z,4.40
2023-02-14T23:11:45.026Z,4.90
2023-02-14T23:14:32.964Z,5.10
2023-02-14T23:17:19.644Z,4.30
2023-02-14T23:20:06.554Z,4.10
2023-02-14T23:22:36.942Z,4.60
2023-02-14T23:25:08.247Z,4.40
2023-02-14T23:27:39.594Z,5.60
2023-02-14T23:30:11.486Z,4.70
2023-02-14T23:32:39.495Z,3.50
2023-02-14T23:35:07.472Z,2.80
2023-02-14T23:37:38.706Z,3.60
2023-02-14T23:40:07.599Z,3.30
2023-02-14T23:42:37.510Z,2.50
2023-02-14T23:45:28.783Z,2.20
2023-02-14T23:48:01.702Z,1.90
2023-02-14T23:50:29.731Z,1.80
2023-02-14T23:52:58.443Z,1.60
2023-02-14T23:55:26.398Z,1.40
2023-02-14T23:57:54.457Z,1.50
